Broken Bow, NE

2:31 PM CDT on July 04, 2015 (GMT -0500)
South of Town | | Change Station
CLOSE
Current Station
Personal Weather Station
Location: Broken Bow, NE
Elevation: 2523 ft
Nearby Weather Stations

Elev 2523 ft 41.38 °N, 99.64 °W | Updated 1 second ago

Clear
Clear
85.2 °F
Feels Like 88 °F
N
12.0
Wind Variable Wind from SSE
Gusts 12.0 mph

Today
High -- | Low -- °F
--% Chance of Precip.
Yesterday
High -- | Low -- °F
Precip. -- in
6:10 AM 9:15 PM
Waning Gibbous, 90% visible
Pressure 29.88 in
Visibility 10.0 miles
Clouds Clear
Heat Index 88 °F
Dew Point 66 °F
Humidity 53%
Rainfall in
Snow Depth Not available.
UV 12 out of 12
Pollen 5.10 out of 12
Air Quality Not available.
Flu Activity Not available.
METAR KBBW 041853Z AUTO 17012G24KT 10SM CLR 29/19 A2994 RMK AO2 SLP116 T02940189

More Conditions Fewer Conditions

Pressure 29.88 in
Visibility 10.0 miles
Clouds Clear
Heat Index 88 °F
Dew Point 66 °F
Humidity 53%
Rainfall in
Snow Depth Not available.
UV 12 out of 12
Pollen 5.10 out of 12
Air Quality Not available.
Flu Activity Not available.
METAR KBBW 041853Z AUTO 17012G24KT 10SM CLR 29/19 A2994 RMK AO2 SLP116 T02940189

More Conditions Fewer Conditions

10-Day Weather Forecast

×

Almanac

Astronomy

Jul. 04, 2015 Rise Set
Actual Time
Civil Twilight
Nautical Twilight
Astronomical Twilight
Moon
Length of Visible Light
Length of Day
Tomorrow will be .
, % of the Moon is Illuminated

Today's Extremes

State Highs State Lows

Community

WunderPhotos

Upload Photos

1,835,065 photos uploaded!

WunderBlogs® & News

Nearby

Air Quality

  Air Quality AQ Index Pollutant
Not available.

Snow Depth

Station Depth Elevation

Earthquake Activity

City Distance Mag. Time & Date
Minimum magnitude displayed is 2.5.

Coastal Water Temperatures

Place Temperature

Stations

Nearby Weather Stations

Station Location Temp. Windchill Dew Point Humidity Wind Precip. Elev Updated Type